Terminal Aerodrome Forecast
Issued by NWS Goodland, KS

Home | Current Version | Previous Version | Text Only | Print | Product List | Glossary On
Versions: 1 2 3 4 5 6 7 8 9 10 11 12 13 14 15
000
FTUS43 KGLD 310520
TAFGLD
TAF
KGLD 310520Z 3106/0106 VRB04KT P6SM SKC
     FM311000 VRB05KT 2SM BR BKN005
     FM311500 13005KT P6SM SCT010
     FM311900 16015G25KT P6SM SCT150
     FM010000 19010G16KT P6SM SCT150=

USA.gov is the U.S. government's official web portal to all federal, state and local government web resources and services.